Time;durP1;ratioP1;P1;durP2;ratioP2;P2;SDS_P1;SDS_P2;PMS_P1;PMS_P2;Temp;Humidity;BMP_temperature;BMP_pressure;BME280_temperature;BME280_humidity;BME280_pressure;Samples;Min_cycle;Max_cycle;Signal;HPM_P1;HPM_P2
2021/06/29 06:31:58;;;;;;;29.05;14.77;;;13.70;99.90;;;;;;4945151;28;19934;-95
2021/06/29 06:34:24;;;;;;;35.47;15.27;;;13.80;99.90;;;;;;4964988;28;20036;-96
2021/06/29 06:36:50;;;;;;;28.85;15.27;;;13.90;99.90;;;;;;4957614;29;20036;-96
2021/06/29 06:39:15;;;;;;;29.20;14.50;;;14.00;99.90;;;;;;4952737;29;20091;-95
2021/06/29 06:41:41;;;;;;;27.80;12.32;;;14.00;99.90;;;;;;4956150;29;20027;-94
2021/06/29 06:44:07;;;;;;;25.48;13.27;;;14.10;99.90;;;;;;4936851;29;20042;-95
2021/06/29 06:46:32;;;;;;;25.77;12.80;;;14.10;99.90;;;;;;4952508;29;20024;-96
2021/06/29 06:48:58;;;;;;;20.45;12.10;;;14.20;99.90;;;;;;4936123;29;20035;-96
2021/06/29 06:51:25;;;;;;;22.90;11.68;;;14.30;99.90;;;;;;4951940;29;20035;-95
2021/06/29 06:53:51;;;;;;;22.33;11.73;;;14.30;99.90;;;;;;4955260;28;20027;-96
2021/06/29 06:56:17;;;;;;;19.20;10.73;;;14.30;99.90;;;;;;4954421;29;20030;-96
2021/06/29 06:58:45;;;;;;;20.95;11.15;;;14.30;99.90;;;;;;4955665;28;20023;-96
2021/06/29 07:01:13;;;;;;;18.75;10.82;;;14.30;99.90;;;;;;4943731;29;20023;-95
2021/06/29 07:03:41;;;;;;;18.63;9.88;;;14.40;99.90;;;;;;4977418;28;20034;-96
2021/06/29 07:06:08;;;;;;;18.50;9.48;;;14.30;99.90;;;;;;4976798;28;20027;-96
2021/06/29 07:08:34;;;;;;;16.05;9.88;;;14.30;99.90;;;;;;4949815;28;20023;-95
2021/06/29 07:11:02;;;;;;;22.02;11.02;;;14.30;99.90;;;;;;4956303;29;20035;-96
2021/06/29 07:13:28;;;;;;;17.05;9.18;;;14.30;99.90;;;;;;4978962;28;20083;-96
2021/06/29 07:15:54;;;;;;;16.95;9.63;;;14.30;99.90;;;;;;4955336;28;20526;-94
2021/06/29 07:18:22;;;;;;;17.42;10.13;;;14.30;99.90;;;;;;4967597;28;20027;-96
2021/06/29 07:20:48;;;;;;;14.13;8.20;;;14.30;99.90;;;;;;4969986;28;20055;-96
2021/06/29 07:25:57;;;;;;;18.45;11.57;;;14.40;99.90;;;;;;5747404;23;20043;-96
2021/06/29 07:36:12;;;;;;;24.27;14.00;;;14.50;99.90;;;;;;5345834;23;20073;-96
2021/06/29 07:41:14;;;;;;;25.13;14.68;;;14.60;99.90;;;;;;5033877;23;20069;-96
2021/06/29 07:43:40;;;;;;;24.67;14.70;;;14.60;99.90;;;;;;4988150;28;20163;-92
2021/06/29 09:19:21;;;;;;;18.00;11.13;;;16.10;99.90;;;;;;4933445;29;20058;-96
2021/06/29 09:22:32;;;;;;;16.80;11.85;;;16.10;99.90;;;;;;4928400;29;20056;-95
2021/06/29 09:24:59;;;;;;;20.95;12.48;;;16.10;99.90;;;;;;4925578;29;20028;-95
2021/06/29 09:27:48;;;;;;;19.42;12.60;;;16.10;99.90;;;;;;4911014;29;20028;-95
2021/06/29 09:36:42;;;;;;;16.90;11.60;;;16.20;99.90;;;;;;5218083;23;20076;-96
2021/06/29 09:39:20;;;;;;;12.02;9.02;;;16.30;99.90;;;;;;5024411;28;20021;-96
2021/06/29 09:44:25;;;;;;;14.85;9.18;;;16.70;99.90;;;;;;5581245;23;20056;-95
2021/06/29 09:46:52;;;;;;;11.85;9.55;;;16.90;99.90;;;;;;5016844;28;20270;-95
2021/06/29 09:49:21;;;;;;;9.63;7.15;;;17.10;99.90;;;;;;5000909;28;20102;-94
2021/06/29 09:51:51;;;;;;;10.88;7.25;;;17.20;99.90;;;;;;4992297;28;20496;-96
2021/06/29 09:54:18;;;;;;;9.80;6.65;;;17.30;99.90;;;;;;4991597;28;20030;-95
2021/06/29 09:56:46;;;;;;;10.52;7.28;;;17.50;99.90;;;;;;4995089;28;20026;-96
2021/06/29 09:59:15;;;;;;;12.15;6.95;;;17.60;99.90;;;;;;4996510;28;20064;-95
2021/06/29 10:01:41;;;;;;;10.48;6.68;;;17.80;99.90;;;;;;4997259;28;20026;-96
2021/06/29 10:04:10;;;;;;;7.78;6.50;;;18.00;99.90;;;;;;4995448;28;20034;-96
2021/06/29 10:06:38;;;;;;;8.82;6.43;;;18.30;99.90;;;;;;4993142;28;20063;-96
2021/06/29 10:09:17;;;;;;;8.60;6.18;;;18.70;99.90;;;;;;4995655;28;20528;-95
2021/06/29 10:11:54;;;;;;;7.85;6.18;;;19.00;99.90;;;;;;4999578;28;20098;-95
2021/06/29 10:14:21;;;;;;;8.73;5.90;;;19.10;99.90;;;;;;5000782;28;20061;-96
2021/06/29 10:16:57;;;;;;;9.15;5.70;;;19.20;99.90;;;;;;5003962;28;20010;-96
2021/06/29 10:19:46;;;;;;;10.10;5.90;;;19.30;99.50;;;;;;4995572;28;20031;-96
2021/06/29 10:22:13;;;;;;;8.20;5.85;;;19.30;98.80;;;;;;4991808;28;20058;-95
2021/06/29 10:24:39;;;;;;;7.45;5.82;;;19.30;98.40;;;;;;4989235;28;20034;-96
2021/06/29 10:27:10;;;;;;;10.32;6.47;;;19.40;98.30;;;;;;4992369;28;20030;-94
2021/06/29 10:29:58;;;;;;;8.68;6.35;;;19.50;97.80;;;;;;4990648;28;20023;-96
2021/06/29 10:32:29;;;;;;;9.80;6.20;;;19.40;97.30;;;;;;4970013;28;20027;-96
2021/06/29 10:34:55;;;;;;;7.30;5.32;;;19.50;97.30;;;;;;4969728;28;20085;-95
2021/06/29 10:37:21;;;;;;;7.93;5.38;;;19.60;97.30;;;;;;4983575;28;20424;-95
2021/06/29 10:39:47;;;;;;;8.43;4.75;;;19.70;96.90;;;;;;4969090;28;20031;-96
2021/06/29 10:42:18;;;;;;;8.57;5.07;;;19.70;96.50;;;;;;4968266;28;20054;-96
2021/06/29 10:44:47;;;;;;;9.38;5.20;;;19.70;96.20;;;;;;4972176;28;20051;-96
2021/06/29 10:47:28;;;;;;;7.03;5.28;;;19.80;95.80;;;;;;4965485;28;20019;-96
2021/06/29 10:49:55;;;;;;;6.05;4.50;;;19.80;95.60;;;;;;4984359;28;20027;-96
2021/06/29 10:52:27;;;;;;;5.70;4.30;;;19.90;95.30;;;;;;4965038;28;20049;-96
2021/06/29 10:55:18;;;;;;;6.78;4.25;;;20.10;95.00;;;;;;4983938;28;20110;-95
2021/06/29 10:57:46;;;;;;;;;;;20.30;94.50;;;;;;4985086;28;20034;-96
2021/06/29 11:00:23;;;;;;;7.13;4.63;;;20.60;93.80;;;;;;4951517;28;19910;-96
2021/06/29 11:03:07;;;;;;;5.32;4.20;;;20.70;93.00;;;;;;4967770;28;20495;-94
2021/06/29 11:05:40;;;;;;;5.47;3.65;;;20.90;92.20;;;;;;4967252;28;20564;-95
2021/06/29 11:08:11;;;;;;;4.78;3.40;;;21.00;91.90;;;;;;4972468;28;20023;-96
2021/06/29 11:10:39;;;;;;;6.72;3.47;;;21.20;91.00;;;;;;4981760;28;20035;-96
2021/06/29 11:13:07;;;;;;;5.30;3.08;;;21.30;91.00;;;;;;4964610;28;20098;-96
2021/06/29 11:15:56;;;;;;;7.50;3.70;;;21.40;90.10;;;;;;4964099;28;20473;-96
2021/06/29 11:18:45;;;;;;;5.07;3.38;;;21.50;88.00;;;;;;4969798;28;20026;-95
2021/06/29 11:21:34;;;;;;;6.00;2.97;;;21.60;86.40;;;;;;4990919;28;20038;-95
2021/06/29 11:24:00;;;;;;;3.75;2.30;;;21.60;85.80;;;;;;4970883;28;20031;-95
2021/06/29 11:26:27;;;;;;;3.42;2.70;;;21.60;85.40;;;;;;4979979;28;20518;-95
2021/06/29 11:29:08;;;;;;;5.95;2.53;;;21.70;84.50;;;;;;4961694;28;20122;-95
2021/06/29 11:31:34;;;;;;;4.40;2.55;;;21.70;83.90;;;;;;4964220;28;20101;-95
2021/06/29 11:34:07;;;;;;;3.45;3.00;;;21.80;84.00;;;;;;4965185;28;20034;-96
2021/06/29 11:36:33;;;;;;;6.10;2.60;;;21.80;83.50;;;;;;4962626;28;20033;-96
2021/06/29 11:38:59;;;;;;;6.43;2.33;;;21.70;82.40;;;;;;4978794;28;20015;-96
2021/06/29 11:41:28;;;;;;;2.90;2.45;;;21.60;80.80;;;;;;4981834;28;20394;-96
2021/06/29 11:43:57;;;;;;;2.78;2.20;;;21.40;80.20;;;;;;4979543;28;20077;-96
2021/06/29 11:46:46;;;;;;;4.43;2.75;;;21.40;79.90;;;;;;4989661;28;20035;-95
2021/06/29 11:49:16;;;;;;;4.40;2.35;;;21.50;79.70;;;;;;4978117;28;20121;-95
2021/06/29 11:52:18;;;;;;;4.40;2.20;;;21.50;79.00;;;;;;4967341;28;20031;-96
2021/06/29 11:54:49;;;;;;;4.57;2.30;;;21.70;78.00;;;;;;4972267;28;20031;-95
2021/06/29 11:57:39;;;;;;;4.97;2.72;;;21.80;77.50;;;;;;4983807;28;20031;-94
2021/06/29 12:00:30;;;;;;;3.13;2.30;;;21.90;77.20;;;;;;4984431;28;20027;-96
2021/06/29 12:03:12;;;;;;;3.90;3.13;;;22.00;77.30;;;;;;4987950;28;20045;-95
2021/06/29 12:05:39;;;;;;;5.03;2.33;;;22.30;76.10;;;;;;4985444;28;20031;-95
2021/06/29 12:08:08;;;;;;;4.50;2.80;;;22.40;75.40;;;;;;4981465;28;20023;-96
2021/06/29 12:10:47;;;;;;;3.92;2.50;;;22.60;75.00;;;;;;4959607;28;20098;-95
2021/06/29 12:13:16;;;;;;;2.75;2.13;;;22.90;74.60;;;;;;4977765;28;20039;-96
2021/06/29 12:15:50;;;;;;;5.03;2.30;;;23.20;73.30;;;;;;4969367;28;20019;-95
2021/06/29 12:18:22;;;;;;;3.03;2.28;;;23.30;72.50;;;;;;4963572;28;20031;-94
2021/06/29 12:20:56;;;;;;;6.68;2.70;;;23.50;72.70;;;;;;4959870;28;20126;-95
2021/06/29 12:23:25;;;;;;;5.05;2.72;;;23.50;71.80;;;;;;4963617;28;20054;-94
2021/06/29 12:26:02;;;;;;;3.38;2.00;;;23.70;71.50;;;;;;4967648;28;20057;-96
2021/06/29 12:28:36;;;;;;;3.10;2.33;;;23.90;70.30;;;;;;4968013;28;20038;-96
2021/06/29 12:31:12;;;;;;;5.22;2.33;;;24.00;69.90;;;;;;4966359;28;20118;-95
2021/06/29 12:33:46;;;;;;;2.95;1.70;;;24.10;69.10;;;;;;4982724;28;20038;-95
2021/06/29 12:36:15;;;;;;;4.32;2.13;;;24.20;69.10;;;;;;4964597;28;20058;-95
2021/06/29 12:38:49;;;;;;;5.32;2.42;;;24.20;68.60;;;;;;4961129;28;20027;-95
2021/06/29 12:41:21;;;;;;;3.13;2.38;;;24.10;68.10;;;;;;4960971;28;20042;-94
2021/06/29 12:43:53;;;;;;;2.90;2.22;;;24.00;67.60;;;;;;4958703;28;20019;-93
2021/06/29 12:46:23;;;;;;;3.20;2.38;;;23.90;67.60;;;;;;4978280;28;20049;-95
2021/06/29 12:49:06;;;;;;;3.15;2.10;;;23.90;67.40;;;;;;4961412;28;20019;-96
2021/06/29 12:51:40;;;;;;;2.63;2.20;;;24.00;67.50;;;;;;4961974;28;20043;-95
2021/06/29 12:54:15;;;;;;;4.38;2.20;;;24.10;67.50;;;;;;4966514;28;20518;-95
2021/06/29 12:56:51;;;;;;;5.63;2.58;;;24.40;67.40;;;;;;4967391;28;20123;-94
2021/06/29 12:59:24;;;;;;;4.32;2.45;;;24.60;66.80;;;;;;4965806;28;20042;-96
2021/06/29 13:01:55;;;;;;;5.43;2.70;;;24.80;65.90;;;;;;4980793;28;20041;-96
2021/06/29 13:04:23;;;;;;;6.47;2.45;;;24.80;65.50;;;;;;4981826;28;20030;-95
2021/06/29 13:07:01;;;;;;;4.10;2.13;;;24.90;65.30;;;;;;4969474;28;20027;-94
2021/06/29 13:09:32;;;;;;;5.45;2.92;;;24.80;64.90;;;;;;4969652;28;20023;-95
2021/06/29 13:12:01;;;;;;;4.45;2.30;;;24.70;65.50;;;;;;4972932;28;20035;-94
2021/06/29 13:14:28;;;;;;;6.53;2.83;;;24.80;66.50;;;;;;4971679;28;20081;-94
2021/06/29 13:17:07;;;;;;;3.28;2.60;;;25.00;65.30;;;;;;4969542;28;20018;-94
2021/06/29 13:19:37;;;;;;;3.22;2.00;;;25.30;64.90;;;;;;4967879;28;20077;-96
2021/06/29 13:22:04;;;;;;;;;;;25.70;63.80;;;;;;4953239;28;20098;-96
2021/06/29 13:24:49;;;;;;;2.80;2.53;;;25.70;63.00;;;;;;4984320;28;19972;-94
2021/06/29 13:27:34;;;;;;;4.97;2.35;;;25.80;63.00;;;;;;4983516;28;20099;-94
2021/06/29 13:30:11;;;;;;;3.85;2.53;;;25.60;62.60;;;;;;4985264;28;20089;-95
2021/06/29 13:32:42;;;;;;;3.55;2.40;;;25.40;62.80;;;;;;4970430;28;20046;-96
2021/06/29 13:35:11;;;;;;;3.38;2.20;;;25.20;63.20;;;;;;4969508;28;20027;-95
2021/06/29 13:37:50;;;;;;;6.80;3.00;;;25.10;63.40;;;;;;4987400;28;20030;-95
2021/06/29 13:40:20;;;;;;;4.38;2.10;;;24.90;63.50;;;;;;4972772;28;20042;-95
2021/06/29 13:42:51;;;;;;;;;;;24.80;63.80;;;;;;4971727;28;20026;-96
2021/06/29 13:45:17;;;;;;;2.60;2.40;;;24.90;64.10;;;;;;4971225;28;19922;-95
2021/06/29 13:47:53;;;;;;;3.25;2.50;;;25.00;64.00;;;;;;4970558;28;20043;-95
2021/06/29 13:50:20;;;;;;;5.32;2.58;;;25.10;63.40;;;;;;4986753;28;20041;-95
2021/06/29 13:53:13;;;;;;;3.95;2.30;;;25.10;63.00;;;;;;4972124;28;20031;-96
2021/06/29 13:55:51;;;;;;;3.30;1.98;;;24.90;62.90;;;;;;4980924;28;20488;-95
2021/06/29 13:58:26;;;;;;;3.40;2.47;;;24.90;63.60;;;;;;4971040;28;20022;-95
2021/06/29 14:00:56;;;;;;;5.32;2.92;;;24.90;63.80;;;;;;4968952;28;20046;-94
2021/06/29 14:03:30;;;;;;;7.25;2.60;;;25.00;63.70;;;;;;4976422;28;20054;-96
2021/06/29 14:06:06;;;;;;;2.75;2.00;;;24.80;63.60;;;;;;4977014;28;20046;-95
2021/06/29 14:08:36;;;;;;;3.67;2.53;;;24.70;64.90;;;;;;4976722;28;20019;-96
2021/06/29 14:11:07;;;;;;;4.23;2.40;;;24.60;64.50;;;;;;4977265;28;20035;-96
2021/06/29 14:13:36;;;;;;;5.55;2.53;;;24.50;64.70;;;;;;4993202;28;20282;-95
2021/06/29 14:16:04;;;;;;;3.80;2.33;;;24.40;64.70;;;;;;4975448;28;20023;-96
2021/06/29 14:18:32;;;;;;;4.80;2.17;;;24.30;64.60;;;;;;4972621;28;20058;-96
2021/06/29 14:20:59;;;;;;;3.10;2.45;;;24.20;64.90;;;;;;4985469;28;20070;-95
2021/06/29 14:23:31;;;;;;;4.25;2.33;;;24.40;64.90;;;;;;4987056;28;20027;-96
2021/06/29 14:26:02;;;;;;;4.32;2.80;;;24.30;64.60;;;;;;4973495;28;20035;-96
2021/06/29 14:28:29;;;;;;;;;;;24.20;64.80;;;;;;4970298;28;20118;-95
2021/06/29 14:30:58;;;;;;;3.45;2.05;;;24.20;65.10;;;;;;4988814;28;19906;-96
2021/06/29 14:33:24;;;;;;;4.60;2.50;;;24.30;64.50;;;;;;4974478;28;20023;-95
2021/06/29 14:35:51;;;;;;;3.58;2.25;;;24.50;64.40;;;;;;4974825;28;20034;-95
2021/06/29 14:38:17;;;;;;;3.33;2.50;;;24.60;64.10;;;;;;4971107;28;20027;-96
2021/06/29 14:40:44;;;;;;;5.30;2.20;;;24.60;63.90;;;;;;4973647;28;20469;-96
2021/06/29 14:43:11;;;;;;;4.57;2.55;;;24.70;63.90;;;;;;4975319;28;20035;-95
2021/06/29 14:45:41;;;;;;;4.80;2.10;;;24.60;63.70;;;;;;4971435;28;20074;-96
2021/06/29 14:48:08;;;;;;;5.97;2.75;;;24.70;63.90;;;;;;4968959;28;20019;-95
2021/06/29 14:50:35;;;;;;;3.42;2.20;;;24.70;63.80;;;;;;4970022;28;20022;-95
2021/06/29 14:53:02;;;;;;;3.55;1.90;;;24.80;63.20;;;;;;4969300;28;20098;-94
2021/06/29 14:55:28;;;;;;;2.88;1.70;;;24.90;63.10;;;;;;4965091;28;20472;-95
2021/06/29 14:57:54;;;;;;;3.65;2.00;;;24.90;62.80;;;;;;4963052;28;20062;-96
2021/06/29 15:00:20;;;;;;;3.00;1.80;;;24.80;62.70;;;;;;4979357;28;20030;-93
2021/06/29 15:02:46;;;;;;;3.45;2.00;;;24.70;63.00;;;;;;4963743;28;20023;-96
2021/06/29 15:05:13;;;;;;;2.75;2.08;;;24.70;63.10;;;;;;4962462;28;20034;-96
2021/06/29 15:07:43;;;;;;;3.47;2.25;;;24.80;63.40;;;;;;4960959;28;20027;-95
2021/06/29 15:10:11;;;;;;;2.45;1.70;;;24.80;63.40;;;;;;4963327;28;20119;-94
2021/06/29 15:12:38;;;;;;;2.83;1.80;;;24.80;62.90;;;;;;4979216;28;20038;-95
2021/06/29 15:15:10;;;;;;;3.15;1.80;;;24.80;63.20;;;;;;4979124;28;20122;-94
2021/06/29 15:17:36;;;;;;;3.97;2.10;;;24.70;63.10;;;;;;4963304;28;20019;-93
2021/06/29 15:20:04;;;;;;;2.00;1.63;;;24.60;63.60;;;;;;4963289;28;20041;-94
2021/06/29 15:22:30;;;;;;;5.13;1.90;;;24.50;63.90;;;;;;4982817;28;20053;-96
2021/06/29 15:24:56;;;;;;;2.00;1.63;;;24.40;64.10;;;;;;4965638;28;20083;-94
2021/06/29 15:27:22;;;;;;;3.38;1.92;;;24.30;64.60;;;;;;4962874;28;20484;-95
2021/06/29 15:29:48;;;;;;;2.80;2.08;;;24.20;65.20;;;;;;4977954;28;20034;-93
2021/06/29 15:32:14;;;;;;;3.03;2.30;;;24.10;65.40;;;;;;4963367;28;20511;-96
2021/06/29 15:34:40;;;;;;;3.53;2.10;;;24.00;65.50;;;;;;4963236;28;20099;-94
2021/06/29 15:37:09;;;;;;;3.78;1.85;;;23.90;65.50;;;;;;4981101;28;20069;-94
2021/06/29 15:39:35;;;;;;;5.05;2.13;;;23.90;65.60;;;;;;4962858;28;20029;-95
2021/06/29 15:42:01;;;;;;;3.42;2.22;;;24.00;65.40;;;;;;4961243;28;20113;-95
2021/06/29 15:44:27;;;;;;;4.28;1.90;;;24.10;65.10;;;;;;4977875;28;20066;-94
2021/06/29 15:46:53;;;;;;;5.35;2.58;;;24.20;65.00;;;;;;4961304;28;20031;-94
2021/06/29 15:49:19;;;;;;;3.47;1.73;;;24.40;64.90;;;;;;4964646;28;20064;-95
2021/06/29 15:51:44;;;;;;;2.85;2.00;;;24.50;64.60;;;;;;4961435;28;20035;-95
2021/06/29 15:54:10;;;;;;;5.47;2.05;;;24.40;63.90;;;;;;4960089;28;20035;-94
2021/06/29 15:56:39;;;;;;;5.65;2.08;;;24.50;63.90;;;;;;4978942;28;20358;-94
2021/06/29 15:59:11;;;;;;;2.63;1.90;;;24.50;63.70;;;;;;4964882;28;20078;-95
2021/06/29 16:01:37;;;;;;;3.28;1.90;;;24.70;63.60;;;;;;4966604;28;20045;-95
2021/06/29 16:04:05;;;;;;;3.55;1.70;;;24.70;63.30;;;;;;4981029;28;20030;-94
2021/06/29 16:06:33;;;;;;;4.78;2.13;;;24.80;62.70;;;;;;4965950;28;20035;-96
2021/06/29 16:08:59;;;;;;;6.68;2.20;;;24.90;62.10;;;;;;4968269;28;20098;-95
2021/06/29 16:11:28;;;;;;;2.40;1.75;;;24.90;61.80;;;;;;4979175;28;20026;-95
2021/06/29 16:13:54;;;;;;;5.00;2.05;;;25.10;61.30;;;;;;4966284;28;20023;-94
2021/06/29 16:16:20;;;;;;;2.90;1.67;;;25.10;60.60;;;;;;4964617;28;20042;-95
2021/06/29 16:18:48;;;;;;;2.20;1.77;;;25.00;60.40;;;;;;4966468;28;20484;-94
2021/06/29 16:21:18;;;;;;;5.78;1.80;;;25.00;60.90;;;;;;4978184;28;20105;-95
2021/06/29 16:23:45;;;;;;;2.85;1.88;;;25.00;60.90;;;;;;4963178;28;20027;-94
2021/06/29 16:26:12;;;;;;;4.60;1.95;;;25.00;61.20;;;;;;4967447;28;20062;-95
2021/06/29 16:28:43;;;;;;;3.75;1.75;;;25.00;61.20;;;;;;4975933;28;20031;-95
2021/06/29 16:31:15;;;;;;;3.97;2.20;;;25.10;61.20;;;;;;4975782;28;20046;-96
2021/06/29 16:33:42;;;;;;;3.58;2.03;;;25.10;60.90;;;;;;4991191;28;20035;-96
2021/06/29 16:36:09;;;;;;;1.63;1.52;;;25.20;60.60;;;;;;4973118;28;20031;-95
2021/06/29 16:38:48;;;;;;;3.75;1.60;;;25.20;60.30;;;;;;4973597;28;20038;-95
2021/06/29 16:41:15;;;;;;;2.00;1.80;;;25.10;60.10;;;;;;4990660;28;20023;-95
2021/06/29 16:43:42;;;;;;;1.60;1.50;;;25.10;60.00;;;;;;4968593;28;20038;-96
2021/06/29 16:46:09;;;;;;;3.80;1.65;;;25.00;59.50;;;;;;4967503;28;20019;-94
2021/06/29 16:48:38;;;;;;;4.18;1.75;;;24.90;59.40;;;;;;4969945;28;20043;-96
2021/06/29 16:51:09;;;;;;;2.90;1.30;;;24.80;59.70;;;;;;4968466;28;20027;-95
2021/06/29 16:53:38;;;;;;;2.75;1.88;;;24.70;59.80;;;;;;4967539;28;20070;-95
2021/06/29 16:56:08;;;;;;;1.70;1.40;;;24.60;59.90;;;;;;4988626;28;20118;-94
2021/06/29 17:04:00;;;;;;;5.88;1.80;;;24.40;59.30;;;;;;5118942;23;20046;-96
2021/06/29 17:12:11;;;;;;;4.18;1.70;;;24.20;61.50;;;;;;791322;23;20323;-91
2021/06/29 17:14:46;;;;;;;4.47;1.85;;;24.20;61.70;;;;;;5015081;28;20062;-96
2021/06/29 17:17:14;;;;;;;3.42;1.70;;;24.30;61.80;;;;;;5009360;28;20039;-96
2021/06/29 17:19:45;;;;;;;2.60;1.30;;;24.40;61.50;;;;;;5018502;28;20496;-96
2021/06/29 17:22:11;;;;;;;2.63;1.50;;;24.50;61.10;;;;;;5015700;28;20086;-96
2021/06/29 17:24:39;;;;;;;2.05;1.50;;;24.50;60.10;;;;;;5001068;28;20034;-96
2021/06/29 17:27:06;;;;;;;3.55;1.50;;;24.40;59.70;;;;;;5017226;28;20061;-96
2021/06/29 17:32:52;;;;;;;2.00;1.50;;;24.30;59.50;;;;;;5019012;28;20058;-96
2021/06/29 18:00:54;;;;;;;1.85;1.55;;;23.60;61.20;;;;;;5076461;23;20054;-96
2021/06/29 18:03:21;;;;;;;3.75;1.95;;;23.50;61.50;;;;;;5001420;28;20028;-96
2021/06/29 18:05:56;;;;;;;4.35;2.08;;;23.40;61.70;;;;;;5017814;28;20062;-96
2021/06/29 18:08:22;;;;;;;2.45;1.80;;;23.30;62.70;;;;;;5007757;28;20038;-95
2021/06/29 18:10:49;;;;;;;6.97;2.30;;;23.20;62.30;;;;;;5014521;28;20086;-96
2021/06/29 18:13:15;;;;;;;3.42;1.90;;;23.20;62.70;;;;;;5016165;28;20038;-96
2021/06/29 18:15:46;;;;;;;3.97;1.90;;;23.10;62.90;;;;;;5017356;28;20101;-96
2021/06/29 18:18:18;;;;;;;3.50;1.85;;;23.00;63.10;;;;;;4999420;28;20042;-96
2021/06/29 18:21:08;;;;;;;3.55;2.10;;;23.00;63.60;;;;;;5000306;28;20035;-94
2021/06/29 18:23:37;;;;;;;5.82;2.00;;;22.80;63.90;;;;;;5014741;28;20019;-95
2021/06/29 18:26:25;;;;;;;5.77;2.20;;;22.70;64.30;;;;;;5017212;28;20074;-96
2021/06/29 18:29:03;;;;;;;3.83;2.10;;;22.60;64.80;;;;;;5015702;28;20261;-95
2021/06/29 18:31:29;;;;;;;2.97;2.28;;;22.50;65.30;;;;;;5002080;28;20018;-96
2021/06/29 18:34:20;;;;;;;2.63;1.92;;;22.50;65.80;;;;;;5018558;28;20026;-96
2021/06/29 18:36:50;;;;;;;4.05;2.08;;;22.40;66.10;;;;;;5017088;28;20030;-96
2021/06/29 18:39:19;;;;;;;3.55;1.70;;;22.30;66.40;;;;;;5018688;28;20061;-96
2021/06/29 18:41:55;;;;;;;4.18;2.03;;;22.20;66.80;;;;;;5013150;28;20036;-96
2021/06/29 18:44:21;;;;;;;6.45;2.20;;;22.20;67.20;;;;;;5012505;28;20057;-96
2021/06/29 18:46:56;;;;;;;6.38;2.70;;;22.10;67.60;;;;;;5011710;28;20138;-96
2021/06/29 18:49:22;;;;;;;5.05;2.55;;;22.00;68.10;;;;;;5011752;28;20034;-96
2021/06/29 18:51:48;;;;;;;3.03;2.47;;;21.90;68.50;;;;;;5009327;28;20034;-96
2021/06/29 18:54:30;;;;;;;5.07;1.95;;;21.80;68.70;;;;;;5011250;28;20022;-95
2021/06/29 18:56:57;;;;;;;4.28;2.40;;;21.70;69.30;;;;;;5014246;28;20398;-95
2021/06/29 18:59:23;;;;;;;5.75;2.50;;;21.60;69.40;;;;;;5012764;28;20033;-96
2021/06/29 19:01:58;;;;;;;5.57;2.22;;;21.50;69.80;;;;;;4983425;28;20096;-96
2021/06/29 19:04:24;;;;;;;3.78;2.67;;;21.40;70.20;;;;;;4984332;28;20114;-96
2021/06/29 19:06:53;;;;;;;6.57;2.63;;;21.40;70.60;;;;;;5000190;28;20105;-96
2021/06/29 19:09:19;;;;;;;4.80;2.45;;;21.30;70.90;;;;;;5001923;28;20060;-96
2021/06/29 19:11:58;;;;;;;4.30;2.55;;;21.20;71.30;;;;;;5014261;23;20057;-96
2021/06/29 19:14:28;;;;;;;6.82;3.00;;;21.10;71.90;;;;;;5015878;28;20030;-95
2021/06/29 19:16:58;;;;;;;5.57;2.63;;;21.00;72.20;;;;;;4999789;28;20030;-96
2021/06/29 19:19:28;;;;;;;8.27;2.75;;;21.00;72.70;;;;;;5015572;28;20082;-95
2021/06/29 19:22:00;;;;;;;7.60;2.95;;;20.90;73.10;;;;;;5015205;28;20018;-95
2021/06/29 19:24:35;;;;;;;4.95;3.00;;;20.80;73.70;;;;;;5016311;28;20037;-96
2021/06/29 19:27:02;;;;;;;2.97;2.28;;;20.70;74.00;;;;;;5014370;28;20034;-96
2021/06/29 19:29:30;;;;;;;6.18;3.00;;;20.60;74.50;;;;;;5014137;28;20069;-96
2021/06/29 19:31:57;;;;;;;4.32;2.95;;;20.50;75.00;;;;;;5013495;28;20050;-96
2021/06/29 19:34:26;;;;;;;5.78;2.72;;;20.40;75.30;;;;;;5013276;28;20031;-96
2021/06/29 19:36:53;;;;;;;10.95;3.38;;;20.30;75.70;;;;;;5009828;28;20078;-96
2021/06/29 19:39:20;;;;;;;5.07;2.72;;;20.20;76.20;;;;;;5014033;28;20089;-96
2021/06/29 19:41:47;;;;;;;7.43;2.95;;;20.10;76.70;;;;;;5011786;28;20026;-96
2021/06/29 19:44:14;;;;;;;4.72;2.63;;;20.10;77.20;;;;;;5005123;28;20026;-96
2021/06/29 19:46:40;;;;;;;3.15;2.85;;;20.00;77.70;;;;;;5003685;28;20117;-95
2021/06/29 19:49:06;;;;;;;9.38;2.85;;;19.90;78.20;;;;;;5002000;28;20432;-96
2021/06/29 19:51:35;;;;;;;5.70;2.83;;;19.70;78.50;;;;;;5003513;28;20022;-96
2021/06/29 19:54:02;;;;;;;5.93;2.65;;;19.70;79.10;;;;;;4987471;28;20041;-95
2021/06/29 19:56:28;;;;;;;6.50;3.00;;;19.60;79.50;;;;;;5004663;28;20033;-95
2021/06/29 19:58:55;;;;;;;5.15;2.83;;;19.60;79.90;;;;;;4993255;28;20058;-94
2021/06/29 20:01:25;;;;;;;6.95;2.85;;;19.50;80.10;;;;;;4981010;28;20378;-95
2021/06/29 20:03:52;;;;;;;5.60;2.75;;;19.50;80.70;;;;;;4981458;28;20053;-94
2021/06/29 20:06:18;;;;;;;6.60;2.85;;;19.50;81.10;;;;;;4991374;28;20065;-94
2021/06/29 20:08:44;;;;;;;6.10;2.92;;;19.50;81.50;;;;;;4990472;28;20046;-92
2021/06/29 20:11:11;;;;;;;4.03;2.67;;;19.50;81.60;;;;;;4990776;28;20035;-94
2021/06/29 20:13:38;;;;;;;6.38;2.88;;;19.50;81.90;;;;;;4985352;28;20049;-94
2021/06/29 20:16:04;;;;;;;5.85;3.15;;;19.50;82.30;;;;;;4985379;28;20081;-94
2021/06/29 20:18:30;;;;;;;6.22;2.80;;;19.50;82.70;;;;;;4984594;28;20061;-91
2021/06/29 20:20:56;;;;;;;3.92;2.60;;;19.40;82.80;;;;;;4983323;28;20361;-95
2021/06/29 20:23:24;;;;;;;4.20;2.75;;;19.50;83.30;;;;;;4982740;28;20027;-93
2021/06/29 20:25:50;;;;;;;5.65;2.50;;;19.40;83.60;;;;;;4965882;28;20101;-94
2021/06/29 20:28:16;;;;;;;6.60;2.80;;;19.50;84.00;;;;;;4986487;28;20527;-94
2021/06/29 20:30:42;;;;;;;5.93;2.55;;;19.50;84.30;;;;;;4975768;28;20084;-95
2021/06/29 20:33:11;;;;;;;7.07;2.80;;;19.60;84.60;;;;;;4980625;28;20368;-95
2021/06/29 20:35:38;;;;;;;8.90;3.10;;;19.60;84.90;;;;;;4979408;28;20039;-94
2021/06/29 20:38:05;;;;;;;4.43;2.55;;;19.60;84.40;;;;;;4980450;28;20022;-95
2021/06/29 20:40:31;;;;;;;4.97;2.90;;;19.50;84.10;;;;;;4985205;28;20069;-94
2021/06/29 20:42:57;;;;;;;4.45;3.25;;;19.50;84.20;;;;;;4978823;28;20026;-94
2021/06/29 20:45:23;;;;;;;5.10;3.00;;;19.40;84.30;;;;;;4985875;28;20019;-94
2021/06/29 20:47:49;;;;;;;4.30;3.10;;;19.40;84.30;;;;;;4972454;28;20072;-94
2021/06/29 20:50:17;;;;;;;4.00;3.08;;;19.30;84.30;;;;;;4988215;28;20028;-94
2021/06/29 20:52:43;;;;;;;5.65;3.30;;;19.20;84.40;;;;;;4969517;28;20035;-94
2021/06/29 20:55:10;;;;;;;7.60;3.38;;;19.20;84.80;;;;;;4984967;28;20074;-93
2021/06/29 20:57:36;;;;;;;7.55;3.10;;;19.10;85.00;;;;;;4967117;28;20038;-93
2021/06/29 21:00:11;;;;;;;4.30;3.08;;;19.00;85.20;;;;;;4987222;28;20023;-94
2021/06/29 21:02:38;;;;;;;6.47;4.07;;;18.90;85.40;;;;;;4986045;28;20030;-93
2021/06/29 21:05:06;;;;;;;9.85;3.50;;;18.80;85.70;;;;;;4989071;28;20033;-94
2021/06/29 21:07:32;;;;;;;6.45;3.38;;;18.70;85.90;;;;;;4980652;28;20061;-93
2021/06/29 21:09:57;;;;;;;10.05;4.20;;;18.70;86.20;;;;;;4984434;28;20047;-94
2021/06/29 21:12:24;;;;;;;7.57;3.70;;;18.60;86.50;;;;;;4981660;28;20055;-94
2021/06/29 21:14:50;;;;;;;7.10;3.80;;;18.60;86.80;;;;;;4993489;28;20023;-94
2021/06/29 21:17:17;;;;;;;6.90;3.72;;;18.50;87.00;;;;;;4987653;28;20031;-95
2021/06/29 21:19:42;;;;;;;43.38;5.78;;;18.40;87.20;;;;;;4992732;28;20030;-93
2021/06/29 21:22:08;;;;;;;11.02;4.10;;;18.30;87.40;;;;;;4972526;28;20270;-94
2021/06/29 21:24:34;;;;;;;8.23;4.10;;;18.20;87.70;;;;;;4991470;28;20042;-94
2021/06/29 21:27:03;;;;;;;7.38;4.10;;;18.10;88.10;;;;;;4991764;28;20022;-96
2021/06/29 21:29:30;;;;;;;9.13;4.55;;;18.10;88.40;;;;;;4999246;28;20053;-94
2021/06/29 21:31:57;;;;;;;19.45;4.75;;;18.00;88.70;;;;;;5002685;28;20042;-94
2021/06/29 21:34:25;;;;;;;8.60;4.97;;;17.90;88.90;;;;;;5003020;28;20086;-94
2021/06/29 21:36:51;;;;;;;9.82;5.68;;;17.70;89.00;;;;;;5012282;28;20035;-95
2021/06/29 21:39:19;;;;;;;11.02;5.55;;;17.60;89.00;;;;;;5005315;28;20031;-94
2021/06/29 21:41:45;;;;;;;11.50;5.30;;;17.50;89.40;;;;;;4991391;28;20045;-94
2021/06/29 21:44:11;;;;;;;12.35;5.95;;;17.40;90.00;;;;;;5007118;28;20117;-95
2021/06/29 21:46:38;;;;;;;11.95;6.03;;;17.30;90.10;;;;;;4997166;28;20022;-94
2021/06/29 21:49:07;;;;;;;12.95;6.55;;;17.20;90.30;;;;;;5006070;28;20030;-95
2021/06/29 21:51:40;;;;;;;10.60;6.63;;;17.10;90.40;;;;;;4993637;28;20050;-93
2021/06/29 21:54:06;;;;;;;15.38;6.57;;;17.10;90.60;;;;;;5010045;28;20042;-95
2021/06/29 21:56:34;;;;;;;16.05;6.95;;;17.00;90.70;;;;;;5003318;28;20061;-94
2021/06/29 21:59:02;;;;;;;16.45;7.28;;;16.90;90.80;;;;;;5002494;28;20058;-93
2021/06/29 22:01:29;;;;;;;9.93;6.80;;;16.80;90.90;;;;;;4998218;28;20081;-94
2021/06/29 22:03:57;;;;;;;12.88;7.57;;;16.70;91.00;;;;;;4999128;28;20027;-94
2021/06/29 22:06:23;;;;;;;16.52;8.05;;;16.60;91.30;;;;;;4994727;28;20026;-94